Time;durP1;ratioP1;P1;durP2;ratioP2;P2;SDS_P1;SDS_P2;PMS_P1;PMS_P2;Temp;Humidity;BMP_temperature;BMP_pressure;BME280_temperature;BME280_humidity;BME280_pressure;Samples;Min_cycle;Max_cycle;Signal;HPM_P1;HPM_P2
2023/06/20 00:00:28;;;;;;;11.68;9.50;;;;;;;19.69;100.00;101156.31;5000356;28;20038;-49
2023/06/20 00:02:54;;;;;;;11.82;9.32;;;;;;;19.28;100.00;101078.84;5010724;28;20061;-47
2023/06/20 00:05:19;;;;;;;10.45;9.45;;;;;;;19.65;100.00;101152.97;5011647;28;20036;-48
2023/06/20 00:07:44;;;;;;;11.20;10.05;;;;;;;19.65;100.00;101155.63;4993798;28;20045;-45
2023/06/20 00:10:10;;;;;;;12.75;9.45;;;;;;;19.64;100.00;101152.09;5012064;28;20536;-48
2023/06/20 00:12:35;;;;;;;10.73;9.63;;;;;;;19.65;100.00;101155.63;5010833;28;20100;-47
2023/06/20 00:15:01;;;;;;;11.48;9.43;;;;;;;19.67;100.00;101161.75;4994022;28;20125;-47
2023/06/20 00:17:26;;;;;;;11.30;10.18;;;;;;;19.67;100.00;101155.56;5011086;28;20038;-52
2023/06/20 00:19:51;;;;;;;12.57;9.05;;;;;;;19.71;100.00;101154.38;4961962;28;20041;-49
2023/06/20 00:22:17;;;;;;;14.60;9.77;;;;;;;19.33;100.00;101088.28;4993688;28;20049;-46
2023/06/20 00:24:42;;;;;;;10.38;9.35;;;;;;;19.35;100.00;101088.19;5011571;28;20063;-47
2023/06/20 00:27:08;;;;;;;11.02;9.43;;;;;;;19.72;100.00;101153.44;5009800;28;20037;-50
2023/06/20 00:29:33;;;;;;;13.50;9.07;;;;;;;19.26;100.00;101064.75;5011725;28;20030;-51
2023/06/20 00:31:58;;;;;;;10.13;8.70;;;;;;;19.70;100.00;101150.00;5011911;28;20054;-48
2023/06/20 00:34:24;;;;;;;12.30;9.48;;;;;;;19.67;100.00;101146.56;5011922;28;20470;-46
2023/06/20 00:36:49;;;;;;;12.20;9.30;;;;;;;19.30;100.00;101079.59;5012114;28;20081;-49
2023/06/20 00:39:14;;;;;;;10.98;9.80;;;;;;;19.63;100.00;101130.84;5010755;28;20061;-51
2023/06/20 00:41:40;;;;;;;10.35;9.15;;;;;;;19.29;100.00;101077.91;5012063;28;20113;-47
2023/06/20 00:44:05;;;;;;;11.30;9.68;;;;;;;19.46;100.00;101107.94;5012055;28;20049;-49
2023/06/20 00:46:40;;;;;;;10.95;8.93;;;;;;;19.61;100.00;101128.25;4995034;28;20120;-48
2023/06/20 00:49:07;;;;;;;12.05;10.45;;;;;;;19.30;100.00;101082.28;4997407;28;20440;-50
2023/06/20 00:51:34;;;;;;;10.40;8.90;;;;;;;19.54;100.00;101112.75;5013178;28;20117;-46
2023/06/20 00:53:59;;;;;;;10.98;9.50;;;;;;;19.19;100.00;101052.75;5014109;28;20034;-47
2023/06/20 00:56:25;;;;;;;12.15;9.23;;;;;;;19.26;100.00;101070.97;4997692;28;20038;-47
2023/06/20 00:58:51;;;;;;;10.57;8.63;;;;;;;19.26;100.00;101070.97;5012685;28;20046;-49
2023/06/20 01:01:19;;;;;;;9.50;8.27;;;;;;;19.62;100.00;101138.00;5015468;28;20041;-46
2023/06/20 01:03:46;;;;;;;10.55;8.90;;;;;;;19.60;100.00;101134.59;5015061;28;20046;-49
2023/06/20 01:06:20;;;;;;;10.27;9.23;;;;;;;19.36;100.00;101095.22;5014844;28;20092;-47
2023/06/20 01:08:54;;;;;;;11.38;9.38;;;;;;;19.49;100.00;101105.06;5014060;28;20042;-52
2023/06/20 01:11:45;;;;;;;9.75;8.80;;;;;;;19.53;100.00;101113.69;4997762;28;20026;-51
2023/06/20 01:14:52;;;;;;;12.40;10.15;;;;;;;19.49;100.00;101102.38;4997215;28;20049;-48
2023/06/20 01:17:22;;;;;;;12.15;9.68;;;;;;;19.46;100.00;101102.59;5014670;28;20049;-46
2023/06/20 01:19:54;;;;;;;9.65;8.75;;;;;;;19.46;100.00;101121.28;5012689;28;20026;-50
2023/06/20 01:22:48;;;;;;;10.50;9.05;;;;;;;19.46;100.00;101104.41;5014779;28;20117;-47
2023/06/20 01:25:27;;;;;;;9.95;8.95;;;;;;;19.39;100.00;101103.06;4997319;28;20034;-50
2023/06/20 01:27:59;;;;;;;10.23;9.15;;;;;;;19.35;100.00;101113.03;5014690;28;20114;-47
2023/06/20 01:30:34;;;;;;;10.05;9.05;;;;;;;19.35;100.00;101101.53;4996847;28;20029;-52
2023/06/20 01:33:02;;;;;;;10.57;8.80;;;;;;;18.78;100.00;101007.38;4996052;28;20045;-53
2023/06/20 01:35:29;;;;;;;8.75;7.95;;;;;;;19.24;100.00;101083.53;5014564;28;20088;-48
2023/06/20 01:37:58;;;;;;;11.27;8.40;;;;;;;19.10;100.00;101056.88;4997201;28;20105;-46
2023/06/20 01:40:24;;;;;;;10.52;9.20;;;;;;;18.91;100.00;101030.50;4996918;28;20137;-46
2023/06/20 01:42:54;;;;;;;12.30;9.05;;;;;;;19.26;100.00;101103.00;5013402;28;20062;-46
2023/06/20 01:45:21;;;;;;;10.32;8.98;;;;;;;19.20;100.00;101098.03;4996229;28;20044;-47
2023/06/20 01:47:47;;;;;;;12.75;8.60;;;;;;;19.18;100.00;101081.25;4992621;28;20041;-49
2023/06/20 01:50:13;;;;;;;10.20;9.07;;;;;;;18.78;100.00;101024.25;4994568;28;20038;-49
2023/06/20 01:52:39;;;;;;;11.70;9.77;;;;;;;19.15;100.00;101083.28;5007931;28;20045;-50
2023/06/20 01:55:05;;;;;;;9.82;8.82;;;;;;;18.91;100.00;101053.69;5012018;28;20037;-48
2023/06/20 01:57:33;;;;;;;9.73;8.75;;;;;;;18.67;100.00;101018.75;5012694;28;20036;-46
2023/06/20 01:59:59;;;;;;;9.93;8.52;;;;;;;18.68;100.00;101014.28;5012441;28;20417;-52
2023/06/20 02:02:25;;;;;;;10.77;9.65;;;;;;;19.09;100.00;101096.03;5012777;28;20030;-48
2023/06/20 02:04:56;;;;;;;10.15;8.70;;;;;;;18.66;100.00;101008.16;5012662;28;20045;-46
2023/06/20 02:07:21;;;;;;;;;;;;;;;19.09;100.00;101082.69;4996677;28;20137;-49
2023/06/20 02:09:47;;;;;;;10.50;9.23;;;;;;;19.07;100.00;101073.94;5014125;28;19914;-46
2023/06/20 02:12:12;;;;;;;10.27;9.13;;;;;;;18.48;100.00;100976.38;5014107;28;20037;-47
2023/06/20 02:14:38;;;;;;;10.18;9.18;;;;;;;18.69;100.00;101011.50;5012825;28;20498;-46
2023/06/20 02:17:04;;;;;;;11.82;8.60;;;;;;;19.04;100.00;101083.94;5011738;28;20030;-46
2023/06/20 02:19:30;;;;;;;9.65;8.75;;;;;;;18.61;100.00;101007.59;4996348;28;20448;-48
2023/06/20 02:21:56;;;;;;;10.88;8.98;;;;;;;18.91;100.00;101062.50;5013887;28;20045;-50
2023/06/20 02:24:22;;;;;;;9.57;8.57;;;;;;;18.68;100.00;101022.28;5012859;28;20033;-48
2023/06/20 02:26:48;;;;;;;11.50;9.55;;;;;;;18.97;100.00;101078.13;5012527;28;20104;-47
2023/06/20 02:29:14;;;;;;;11.15;9.68;;;;;;;18.97;100.00;101087.97;5011823;28;20120;-46
2023/06/20 02:31:43;;;;;;;13.00;9.60;;;;;;;18.54;100.00;101017.78;4996036;28;20121;-47
2023/06/20 02:34:11;;;;;;;10.30;9.13;;;;;;;18.91;100.00;101067.03;4992287;28;20407;-45
2023/06/20 02:36:37;;;;;;;9.88;8.52;;;;;;;18.93;100.00;101076.63;4992544;28;20497;-49
2023/06/20 02:39:05;;;;;;;10.73;9.70;;;;;;;18.92;100.00;101074.91;4992688;28;20030;-51
2023/06/20 02:41:31;;;;;;;10.68;8.55;;;;;;;18.89;100.00;101056.44;4998922;28;20034;-47
2023/06/20 02:43:56;;;;;;;9.80;8.82;;;;;;;18.47;100.00;100974.66;5013346;28;20041;-49
2023/06/20 02:46:37;;;;;;;10.90;9.43;;;;;;;18.95;100.00;101055.19;5013465;28;20117;-49
2023/06/20 02:49:41;;;;;;;9.90;9.02;;;;;;;18.96;100.00;101067.56;5013591;28;20025;-52
2023/06/20 02:52:34;;;;;;;9.90;8.90;;;;;;;18.96;100.00;101048.91;5012837;28;20139;-50
2023/06/20 02:55:07;;;;;;;11.10;9.40;;;;;;;18.90;100.00;101038.63;5012597;28;20469;-48
2023/06/20 02:57:34;;;;;;;9.13;8.10;;;;;;;18.89;100.00;101037.75;5013491;28;20084;-46
2023/06/20 03:00:09;;;;;;;10.18;9.05;;;;;;;18.51;100.00;100975.31;5012131;28;20577;-47
2023/06/20 03:02:41;;;;;;;9.77;8.43;;;;;;;18.89;100.00;101043.09;4993314;28;20121;-47
2023/06/20 03:05:09;;;;;;;9.57;8.63;;;;;;;18.91;100.00;101049.19;4999525;28;20084;-48
2023/06/20 03:07:35;;;;;;;9.23;8.30;;;;;;;18.83;100.00;101026.63;4995794;28;20369;-46
2023/06/20 03:10:03;;;;;;;9.88;8.65;;;;;;;18.92;100.00;101047.38;4995167;28;20124;-49
2023/06/20 03:12:30;;;;;;;9.93;8.13;;;;;;;18.94;100.00;101054.31;5011355;28;20397;-48
2023/06/20 03:14:55;;;;;;;9.80;8.40;;;;;;;18.98;100.00;101045.19;5012246;28;20046;-45
2023/06/20 03:17:20;;;;;;;10.68;8.38;;;;;;;18.97;100.00;101042.63;4994279;28;20041;-50
2023/06/20 03:19:46;;;;;;;9.55;8.63;;;;;;;18.79;100.00;101017.97;5011801;28;20069;-48
2023/06/20 03:22:11;;;;;;;9.27;8.10;;;;;;;18.26;100.00;100914.69;5012460;28;20056;-45
2023/06/20 03:24:36;;;;;;;10.00;8.10;;;;;;;19.03;100.00;101052.91;5013285;28;20092;-46
2023/06/20 03:27:02;;;;;;;9.90;7.85;;;;;;;18.83;100.00;101015.94;5012754;28;20553;-46
2023/06/20 03:29:27;;;;;;;9.07;8.07;;;;;;;19.02;100.00;101052.03;5011911;28;20053;-47
2023/06/20 03:31:52;;;;;;;10.65;7.20;;;;;;;18.59;100.00;100982.84;5012524;28;20107;-46
2023/06/20 03:34:17;;;;;;;8.20;7.40;;;;;;;18.97;100.00;101037.28;5012515;28;20026;-47
2023/06/20 03:36:43;;;;;;;10.07;8.18;;;;;;;19.05;100.00;101054.50;5012121;28;20064;-48
2023/06/20 03:39:09;;;;;;;9.13;7.45;;;;;;;18.96;100.00;101030.22;5012319;28;20397;-51
2023/06/20 03:41:34;;;;;;;7.90;7.18;;;;;;;18.62;100.00;100977.34;5012069;28;20042;-48
2023/06/20 03:44:00;;;;;;;10.68;7.72;;;;;;;19.03;100.00;101052.91;4995054;28;20041;-47
2023/06/20 03:46:26;;;;;;;9.02;7.60;;;;;;;19.01;100.00;101050.31;5012523;28;20402;-51
2023/06/20 03:48:51;;;;;;;9.45;8.45;;;;;;;19.01;100.00;101055.66;5012207;28;20038;-47
2023/06/20 03:51:17;;;;;;;8.32;6.85;;;;;;;18.61;100.00;101000.47;5012720;28;20044;-49
2023/06/20 03:53:42;;;;;;;9.55;7.40;;;;;;;18.96;100.00;101052.44;5010608;28;20124;-47
2023/06/20 03:56:07;;;;;;;8.63;7.72;;;;;;;18.58;100.00;100979.34;5012290;28;20052;-47
2023/06/20 03:58:32;;;;;;;8.20;7.40;;;;;;;19.05;100.00;101059.84;5012331;28;20030;-46
2023/06/20 04:00:58;;;;;;;9.50;7.90;;;;;;;19.04;100.00;101050.13;5012554;28;20070;-46
2023/06/20 04:03:23;;;;;;;8.48;7.68;;;;;;;18.65;100.00;100985.97;5012371;28;20057;-47
2023/06/20 04:05:48;;;;;;;7.75;7.03;;;;;;;18.97;100.00;101035.44;5011330;28;20543;-47
2023/06/20 04:08:14;;;;;;;9.93;7.93;;;;;;;19.08;100.00;101050.78;5012181;28;20030;-47
2023/06/20 04:10:39;;;;;;;10.52;8.25;;;;;;;18.70;100.00;100986.56;4994862;28;20046;-48
2023/06/20 04:13:04;;;;;;;8.40;7.57;;;;;;;18.77;100.00;100995.88;5011575;28;20034;-47
2023/06/20 04:15:30;;;;;;;9.20;8.40;;;;;;;19.12;100.00;101056.78;5011884;28;20484;-48
2023/06/20 04:17:55;;;;;;;8.90;8.02;;;;;;;19.09;100.00;101047.16;5010753;28;20037;-47
2023/06/20 04:20:20;;;;;;;9.73;8.27;;;;;;;19.16;100.00;101051.16;5012136;28;20033;-47
2023/06/20 04:22:46;;;;;;;11.77;8.18;;;;;;;18.74;100.00;100977.38;5015086;28;20060;-46
2023/06/20 04:25:15;;;;;;;9.43;8.52;;;;;;;18.82;100.00;100990.25;5016260;28;20084;-45
2023/06/20 04:27:40;;;;;;;10.25;8.38;;;;;;;18.82;100.00;100987.59;4982233;28;20034;-46
2023/06/20 04:30:06;;;;;;;10.43;9.43;;;;;;;19.15;100.00;101045.94;5004736;28;20061;-47
2023/06/20 04:32:32;;;;;;;9.70;8.75;;;;;;;19.25;100.00;101050.56;4998087;28;20130;-47
2023/06/20 04:34:58;;;;;;;9.02;8.10;;;;;;;18.84;100.00;100975.00;5012210;28;20064;-47
2023/06/20 04:37:23;;;;;;;9.80;8.65;;;;;;;19.34;100.00;101054.44;5015061;28;20121;-48
2023/06/20 04:39:49;;;;;;;9.90;8.90;;;;;;;19.37;100.00;101052.44;5014413;28;20169;-47
2023/06/20 04:42:15;;;;;;;10.90;9.23;;;;;;;18.92;100.00;100976.22;5015305;28;20393;-48
2023/06/20 04:44:40;;;;;;;11.40;10.30;;;;;;;19.25;100.00;101026.53;5015782;28;20042;-49
2023/06/20 04:47:05;;;;;;;12.27;9.45;;;;;;;18.94;100.00;100963.63;5015752;28;20033;-46
2023/06/20 04:49:31;;;;;;;11.43;10.23;;;;;;;19.21;100.00;101014.34;5015246;28;20125;-44
2023/06/20 04:51:59;;;;;;;11.50;10.30;;;;;;;19.35;100.00;101040.97;5015720;28;20041;-46
2023/06/20 04:54:24;;;;;;;11.80;10.70;;;;;;;18.93;100.00;100948.59;5015033;28;20038;-47
2023/06/20 04:56:50;;;;;;;11.52;10.32;;;;;;;19.38;100.00;101021.25;5015532;28;20040;-48
2023/06/20 04:59:15;;;;;;;11.95;10.75;;;;;;;19.09;100.00;100977.78;5015459;28;20543;-46
2023/06/20 05:01:40;;;;;;;12.10;10.25;;;;;;;19.41;100.00;101013.91;4995590;28;20038;-50
2023/06/20 05:04:06;;;;;;;11.57;10.38;;;;;;;19.22;100.00;100972.50;4997070;28;20120;-47
2023/06/20 05:06:31;;;;;;;11.80;9.73;;;;;;;19.28;100.00;100969.44;4997379;28;20449;-48
2023/06/20 05:08:56;;;;;;;12.10;10.90;;;;;;;19.63;100.00;101013.34;5015311;28;20482;-46
2023/06/20 05:11:22;;;;;;;11.10;9.82;;;;;;;19.70;100.00;101028.03;4999711;28;20477;-50
2023/06/20 05:13:47;;;;;;;10.50;9.15;;;;;;;19.51;100.00;100966.09;5014787;28;20121;-47
2023/06/20 05:16:12;;;;;;;13.13;9.98;;;;;;;19.38;100.00;100942.00;5014244;28;20065;-46
2023/06/20 05:18:38;;;;;;;11.43;10.18;;;;;;;19.83;100.00;101018.19;5015240;28;20034;-45
2023/06/20 05:21:03;;;;;;;11.07;9.93;;;;;;;20.00;100.00;101014.38;5015244;28;20061;-47
2023/06/20 05:23:29;;;;;;;10.38;9.25;;;;;;;20.13;100.00;101025.94;5014205;28;20398;-46
2023/06/20 05:25:54;;;;;;;10.93;9.82;;;;;;;19.75;100.00;100953.78;5013956;28;20069;-48
2023/06/20 05:28:19;;;;;;;14.70;9.85;;;;;;;20.21;100.00;101023.59;5015024;28;20116;-47
2023/06/20 05:30:45;;;;;;;10.82;9.75;;;;;;;20.29;100.00;101023.94;5015125;28;20060;-47
2023/06/20 05:33:10;;;;;;;11.15;9.57;;;;;;;19.94;100.00;100950.66;5013640;28;20046;-47
2023/06/20 05:35:35;;;;;;;10.35;9.35;;;;;;;20.42;100.00;101029.28;4996536;28;20057;-48
2023/06/20 05:38:01;;;;;;;10.90;9.80;;;;;;;20.22;100.00;100977.19;4997445;28;20069;-47
2023/06/20 05:40:26;;;;;;;12.60;10.25;;;;;;;20.18;100.00;100940.94;5014860;28;20062;-48
2023/06/20 05:42:52;;;;;;;10.02;9.13;;;;;;;20.67;100.00;101018.56;4996823;28;20397;-50
2023/06/20 05:45:17;;;;;;;10.55;9.15;;;;;;;20.72;100.00;101019.94;5012221;28;20045;-51
2023/06/20 05:47:44;;;;;;;11.48;10.40;;;;;;;20.37;100.00;100938.72;5013748;28;20042;-46
2023/06/20 05:50:09;;;;;;;17.52;10.05;;;;;;;20.77;100.00;101001.75;4996690;28;20034;-51
2023/06/20 05:52:35;;;;;;;10.93;9.90;;;;;;;20.86;100.00;101010.09;5014414;28;20025;-50
2023/06/20 05:55:01;;;;;;;10.07;9.13;;;;;;;20.80;100.00;100995.34;4996704;28;20382;-51
2023/06/20 05:57:26;;;;;;;14.32;10.48;;;;;;;20.49;100.00;100932.47;5009106;28;20056;-49
2023/06/20 05:59:52;;;;;;;12.77;9.07;;;;;;;20.68;100.00;100974.81;4996284;28;20045;-49
2023/06/20 06:02:17;;;;;;;10.25;9.25;;;;;;;20.95;100.00;100999.56;5014033;28;20034;-47
2023/06/20 06:04:44;;;;;;;9.80;8.82;;;;;;;20.64;100.00;100935.88;5012679;28;20026;-46
2023/06/20 06:07:10;;;;;;;10.27;9.13;;;;;;;21.17;100.00;101013.13;5013384;28;20065;-49
2023/06/20 06:09:35;;;;;;;10.30;9.30;;;;;;;20.98;100.00;100966.38;5014206;28;20030;-48
2023/06/20 06:12:01;;;;;;;10.10;9.10;;;;;;;21.40;100.00;101021.25;4996245;28;20037;-50
2023/06/20 06:14:26;;;;;;;11.38;10.18;;;;;;;21.10;100.00;100950.28;5013690;28;20034;-46
2023/06/20 06:16:51;;;;;;;9.95;8.95;;;;;;;21.21;100.00;100945.00;4996419;28;20042;-46
2023/06/20 06:19:19;;;;;;;11.68;8.63;;;;;;;21.81;100.00;101027.03;5013254;28;20041;-48
2023/06/20 06:21:44;;;;;;;11.35;9.20;;;;;;;21.52;100.00;100982.84;5014197;28;20096;-49
2023/06/20 06:24:10;;;;;;;11.07;9.23;;;;;;;21.77;100.00;101004.97;5013316;28;20081;-49
2023/06/20 06:26:35;;;;;;;9.55;8.63;;;;;;;21.76;100.00;100968.47;5013848;28;20392;-48
2023/06/20 06:29:01;;;;;;;10.77;9.75;;;;;;;22.05;100.00;100995.72;5013685;28;20488;-48
2023/06/20 06:31:29;;;;;;;12.77;10.18;;;;;;;22.26;100.00;101020.00;5012395;28;20100;-50
2023/06/20 06:33:56;;;;;;;10.45;9.10;;;;;;;21.98;100.00;100948.91;4996321;28;20030;-47
2023/06/20 06:36:23;;;;;;;13.25;10.30;;;;;;;22.47;100.00;101012.97;4995250;28;20041;-45
2023/06/20 06:38:48;;;;;;;11.85;10.68;;;;;;;22.48;100.00;100995.88;5013392;28;20037;-48
2023/06/20 06:41:15;;;;;;;11.20;10.05;;;;;;;22.10;100.00;100963.19;5012943;28;20383;-49
2023/06/20 06:43:41;;;;;;;12.75;10.63;;;;;;;22.50;100.00;101011.88;4994557;28;20117;-47
2023/06/20 06:46:06;;;;;;;13.25;10.20;;;;;;;22.52;100.00;101024.19;5012924;28;20116;-47
2023/06/20 06:48:31;;;;;;;12.40;10.75;;;;;;;22.60;100.00;101020.88;5013227;28;20541;-50
2023/06/20 06:50:57;;;;;;;11.90;10.75;;;;;;;22.26;100.00;100951.16;5012983;28;20117;-49
2023/06/20 06:53:24;;;;;;;13.60;11.63;;;;;;;22.65;100.00;100995.41;5012957;28;20041;-47
2023/06/20 06:55:49;;;;;;;11.98;10.57;;;;;;;22.75;100.00;100982.97;5012001;28;20498;-47
2023/06/20 06:58:15;;;;;;;15.02;10.65;;;;;;;23.01;100.00;101017.59;4995798;28;20037;-48
2023/06/20 07:00:41;;;;;;;12.25;11.05;;;;;;;23.07;100.00;101000.97;4994753;28;20038;-48
2023/06/20 07:03:08;;;;;;;14.15;11.82;;;;;;;22.95;100.00;100947.31;5011984;28;20041;-47
2023/06/20 07:05:33;;;;;;;11.93;10.65;;;;;;;23.47;100.00;100992.22;5013008;28;20045;-47
2023/06/20 07:07:59;;;;;;;20.60;12.35;;;;;;;23.32;100.00;100931.69;4995237;28;20034;-47
2023/06/20 07:10:24;;;;;;;13.60;12.27;;;;;;;23.21;100.00;100920.13;5012386;28;20572;-52
2023/06/20 07:12:50;;;;;;;12.55;11.25;;;;;;;23.02;100.00;100912.78;5013032;28;20121;-47
2023/06/20 07:15:15;;;;;;;12.88;11.23;;;;;;;23.35;100.00;100981.63;5012751;28;20038;-48
2023/06/20 07:17:40;;;;;;;14.32;12.05;;;;;;;23.05;100.00;100959.97;5012870;28;20504;-49
2023/06/20 07:20:08;;;;;;;13.55;12.02;;;;;;;23.08;100.00;100981.22;5012482;28;20034;-47
2023/06/20 07:22:33;;;;;;;14.63;12.95;;;;;;;22.63;100.00;100907.94;5012017;28;20041;-50
2023/06/20 07:24:58;;;;;;;14.43;12.07;;;;;;;23.09;100.00;100988.31;5012820;28;20033;-47
2023/06/20 07:27:24;;;;;;;13.30;12.00;;;;;;;22.29;100.00;100815.97;5012709;28;20037;-47
2023/06/20 07:29:49;;;;;;;13.85;12.40;;;;;;;23.55;100.00;100979.97;5011860;28;20130;-51
2023/06/20 07:32:15;;;;;;;15.07;12.50;;;;;;;23.51;100.00;100928.34;5012599;28;20132;-52
2023/06/20 07:34:41;;;;;;;12.70;11.25;;;;;;;23.99;100.00;100972.50;5011965;28;20121;-49
2023/06/20 07:37:07;;;;;;;13.63;11.95;;;;;;;24.48;100.00;101014.03;4995195;28;20092;-50
2023/06/20 07:39:32;;;;;;;13.50;12.10;;;;;;;24.74;100.00;101017.09;5012585;28;20038;-50
2023/06/20 07:41:57;;;;;;;14.25;12.73;;;;;;;24.53;100.00;100944.50;5012549;28;20030;-48
2023/06/20 07:44:23;;;;;;;12.20;11.13;;;;;;;24.88;100.00;100955.69;5012368;28;20037;-48
2023/06/20 07:46:48;;;;;;;15.40;12.85;;;;;;;25.07;100.00;100962.97;5011677;28;20045;-49
2023/06/20 07:49:13;;;;;;;14.95;12.52;;;;;;;25.38;100.00;100961.00;5012606;28;20079;-51
2023/06/20 07:51:40;;;;;;;12.52;11.23;;;;;;;25.62;100.00;100942.59;4978411;28;20128;-51
2023/06/20 07:54:05;;;;;;;16.65;11.48;;;;;;;26.17;100.00;100984.09;5012273;28;20034;-49
2023/06/20 07:56:31;;;;;;;13.98;12.57;;;;;;;26.78;100.00;101033.03;5012250;28;20044;-48
2023/06/20 07:58:56;;;;;;;14.15;12.63;;;;;;;27.21;100.00;101035.97;4994232;28;20038;-49
2023/06/20 08:01:22;;;;;;;13.30;12.00;;;;;;;27.66;100.00;101035.97;5010581;28;20058;-49
2023/06/20 08:03:48;;;;;;;15.88;12.88;;;;;;;27.10;100.00;100892.13;5009647;28;20116;-51
2023/06/20 08:06:13;;;;;;;14.50;12.93;;;;;;;27.96;100.00;100990.56;5010013;28;20041;-51
2023/06/20 08:08:39;;;;;;;12.95;11.68;;;;;;;28.02;100.00;100942.06;5010208;28;20046;-49
2023/06/20 08:11:04;;;;;;;12.80;10.27;;;;;;;28.76;100.00;101037.16;4989089;28;20037;-49
2023/06/20 08:13:30;;;;;;;12.25;11.02;;;;;;;28.99;100.00;101040.97;5009831;28;20038;-49
2023/06/20 08:15:56;;;;;;;12.20;11.18;;;;;;;29.18;100.00;101045.28;4992104;28;20124;-48
2023/06/20 08:18:21;;;;;;;13.68;12.35;;;;;;;29.31;100.00;101042.97;5009421;28;20060;-49
2023/06/20 08:20:47;;;;;;;12.65;11.52;;;;;;;29.52;100.00;101029.81;5009898;28;20056;-48
2023/06/20 08:23:13;;;;;;;11.82;10.65;;;;;;;29.50;100.00;100991.16;5009133;28;20112;-48
2023/06/20 08:25:39;;;;;;;12.65;11.55;;;;;;;29.37;100.00;100989.94;5010272;28;20048;-51
2023/06/20 08:28:04;;;;;;;13.23;11.45;;;;;;;29.65;100.00;101039.31;4992346;28;20034;-50
2023/06/20 08:30:29;;;;;;;11.70;10.60;;;;;;;29.73;100.00;101040.19;5009910;28;20045;-51
2023/06/20 08:32:54;;;;;;;11.25;10.18;;;;;;;29.30;100.00;100987.06;5008874;28;20137;-49
2023/06/20 08:35:20;;;;;;;12.52;11.32;;;;;;;29.39;100.00;100969.78;5009775;28;20448;-47
2023/06/20 08:37:45;;;;;;;12.82;11.50;;;;;;;29.81;100.00;101028.50;5009857;28;20068;-48
2023/06/20 08:40:13;;;;;;;12.98;10.98;;;;;;;29.61;100.00;100968.28;5008515;28;20107;-47
2023/06/20 08:42:40;;;;;;;10.98;10.07;;;;;;;29.75;100.00;100964.03;4992314;28;20375;-52
2023/06/20 08:45:07;;;;;;;10.88;9.45;;;;;;;30.32;100.00;101016.44;5008780;28;20125;-50
2023/06/20 08:47:32;;;;;;;10.20;9.30;;;;;;;29.85;100.00;100970.16;5008686;28;20585;-47
2023/06/20 08:49:57;;;;;;;9.30;8.40;;;;;;;30.32;100.00;101001.00;4992353;28;20077;-49
2023/06/20 08:52:30;;;;;;;11.32;10.35;;;;;;;30.18;100.00;101028.84;5008160;28;20041;-48
2023/06/20 08:54:56;;;;;;;10.48;9.52;;;;;;;30.11;100.00;100990.66;5009630;28;20042;-51
2023/06/20 08:57:21;;;;;;;10.20;9.35;;;;;;;30.39;100.00;100991.13;5008786;28;20057;-49
2023/06/20 08:59:47;;;;;;;8.90;8.20;;;;;;;30.53;100.00;101000.47;4990863;28;20033;-50
2023/06/20 09:02:13;;;;;;;8.52;7.82;;;;;;;30.94;100.00;101022.94;5006455;28;20490;-47
2023/06/20 09:04:38;;;;;;;7.47;6.70;;;;;;;31.01;100.00;100953.22;5009485;28;20125;-49
2023/06/20 09:07:15;;;;;;;6.97;6.30;;;;;;;31.68;100.00;101000.53;4991920;28;20053;-52
2023/06/20 09:09:40;;;;;;;6.68;6.07;;;;;;;31.57;100.00;100993.66;5013162;28;20072;-48
2023/06/20 09:12:07;;;;;;;8.48;5.80;;;;;;;31.71;100.00;101011.91;5011076;28;20066;-51
2023/06/20 09:14:32;;;;;;;8.07;6.90;;;;;;;31.11;100.00;100953.84;4995624;28;20092;-49
2023/06/20 09:16:59;;;;;;;8.23;7.07;;;;;;;30.88;100.00;100978.22;5014547;28;20033;-48
2023/06/20 09:19:25;;;;;;;9.27;8.45;;;;;;;31.04;100.00;101001.78;5013204;28;20034;-50
2023/06/20 09:21:50;;;;;;;8.88;7.88;;;;;;;31.01;100.00;100942.34;5012058;28;20060;-48
2023/06/20 09:24:20;;;;;;;6.43;5.80;;;;;;;31.87;100.00;100988.31;5010025;28;20117;-47
2023/06/20 09:26:48;;;;;;;8.40;7.60;;;;;;;32.14;100.00;100947.72;5012196;28;20037;-51
2023/06/20 09:29:15;;;;;;;8.02;6.82;;;;;;;32.16;100.00;100950.28;5011062;28;20280;-52
2023/06/20 09:31:45;;;;;;;8.38;7.55;;;;;;;32.39;100.00;101015.56;5010589;28;20069;-51
2023/06/20 09:34:12;;;;;;;9.35;8.48;;;;;;;31.75;100.00;101010.53;5012923;28;20038;-50
2023/06/20 09:36:39;;;;;;;8.32;7.50;;;;;;;31.53;100.00;100988.75;5011403;28;20124;-50
2023/06/20 09:39:07;;;;;;;8.50;7.70;;;;;;;31.72;100.00;100975.53;5011606;28;20068;-52
2023/06/20 09:41:33;;;;;;;8.95;8.05;;;;;;;32.26;100.00;101014.34;4994930;28;20060;-50
2023/06/20 09:43:58;;;;;;;6.72;6.13;;;;;;;32.51;100.00;101011.38;4994625;28;20038;-48
2023/06/20 09:46:23;;;;;;;8.32;7.38;;;;;;;32.98;100.00;101016.44;5011200;28;20430;-51
2023/06/20 09:48:49;;;;;;;7.18;6.53;;;;;;;32.91;100.00;100961.81;4995291;28;20046;-50
2023/06/20 09:51:15;;;;;;;8.32;7.10;;;;;;;33.33;100.00;101010.19;4995401;28;20124;-53
2023/06/20 09:53:45;;;;;;;10.07;8.25;;;;;;;33.49;100.00;101009.06;5014137;28;20034;-51
2023/06/20 09:56:11;;;;;;;13.93;9.30;;;;;;;33.24;100.00;100963.09;4996572;28;20457;-47
2023/06/20 09:58:40;;;;;;;8.23;7.53;;;;;;;33.50;100.00;101014.34;5012580;28;20030;-50
2023/06/20 10:01:07;;;;;;;9.52;8.55;;;;;;;33.70;100.00;101006.38;5014133;28;20061;-49
2023/06/20 10:03:33;;;;;;;9.75;8.95;;;;;;;33.81;100.00;101006.69;5013247;28;20041;-51
2023/06/20 10:06:01;;;;;;;8.85;8.07;;;;;;;33.56;100.00;100942.63;5012286;28;20489;-48
2023/06/20 10:08:26;;;;;;;8.15;7.38;;;;;;;34.07;100.00;101005.22;5012655;28;20104;-47
2023/06/20 10:10:52;;;;;;;7.38;6.78;;;;;;;33.97;100.00;100937.31;4996468;28;20057;-48
2023/06/20 10:13:17;;;;;;;8.35;7.70;;;;;;;34.23;100.00;100986.69;5013798;28;20034;-53
2023/06/20 10:15:43;;;;;;;8.07;7.38;;;;;;;34.26;100.00;100986.31;5012484;28;20026;-50
2023/06/20 10:18:19;;;;;;;7.10;6.50;;;;;;;34.06;100.00;100990.75;4996138;28;20057;-46
2023/06/20 10:20:44;;;;;;;7.07;6.28;;;;;;;34.00;100.00;100977.88;5013718;28;20034;-47
2023/06/20 10:23:10;;;;;;;6.45;5.85;;;;;;;34.20;100.00;100978.06;5013311;28;20032;-47
2023/06/20 10:25:51;;;;;;;8.20;6.07;;;;;;;34.54;100.00;100993.59;5013765;28;20034;-49
2023/06/20 10:28:19;;;;;;;8.07;6.93;;;;;;;34.62;100.00;100986.09;5013645;28;20405;-48
2023/06/20 10:30:50;;;;;;;5.97;5.43;;;;;;;34.87;100.00;100972.78;5013561;28;20466;-51
2023/06/20 10:33:32;;;;;;;6.18;5.65;;;;;;;34.48;100.00;100870.38;5014087;28;20050;-48
2023/06/20 10:36:08;;;;;;;7.45;5.40;;;;;;;35.02;100.00;100985.25;5013686;28;20052;-49
2023/06/20 10:38:38;;;;;;;8.13;7.10;;;;;;;34.83;100.00;100972.34;5012138;28;20440;-48
2023/06/20 10:41:14;;;;;;;7.75;6.80;;;;;;;35.01;100.00;100947.16;5012447;28;20030;-49
2023/06/20 10:43:48;;;;;;;9.05;6.53;;;;;;;35.39;100.00;100963.91;5013167;28;20057;-49
2023/06/20 10:46:14;;;;;;;6.72;6.13;;;;;;;35.09;100.00;100905.09;5013356;28;20072;-54
2023/06/20 10:48:39;;;;;;;8.02;7.32;;;;;;;35.12;100.00;100952.06;4995114;28;20034;-50
2023/06/20 10:51:05;;;;;;;9.68;5.95;;;;;;;35.10;100.00;100956.91;5013273;28;20401;-51
2023/06/20 10:53:30;;;;;;;7.47;5.60;;;;;;;34.81;100.00;100884.19;5013218;28;20026;-49
2023/06/20 10:55:56;;;;;;;6.00;5.47;;;;;;;34.79;100.00;100899.13;4995473;28;20068;-51
2023/06/20 10:58:21;;;;;;;7.25;5.68;;;;;;;35.09;100.00;100935.19;5012928;28;20061;-50
2023/06/20 11:00:47;;;;;;;6.30;5.75;;;;;;;35.31;100.00;100939.47;5013157;28;20070;-49
2023/06/20 11:03:13;;;;;;;6.20;5.70;;;;;;;35.20;100.00;100931.88;5013017;28;20054;-48
2023/06/20 11:05:39;;;;;;;6.15;5.60;;;;;;;34.85;100.00;100887.38;4995314;28;20030;-48
2023/06/20 11:08:10;;;;;;;5.47;5.07;;;;;;;34.76;100.00;100894.06;5012250;28;20449;-47